Terminal Aerodrome Forecast
Issued by NWS

Home | Current Version | Previous Version | Graphics & Text | Print | Product List | Glossary On
Versions: 1 2 3 4 5 6 7 8 9 10 11 12 13 14 15 16 17 18 19 20 21 22 23 24 25 26 27 28 29 30 31 32
000
FTUS43 KLOT 262211 AAB
TAFDPA
TAF AMD
KDPA 262211Z 2622/2718 11006KT P6SM SCT060 BKN120
     FM270000 VRB03KT P6SM BKN150
     FM270800 VRB03KT 5SM BR SCT120
     FM271400 14009KT P6SM SCT120=

USA.gov is the U.S. government's official web portal to all federal, state and local government web resources and services.